Nearby METAR Reports

 

KVGT - North Las Vegas, Nevada, USA
Distance from station: SSW 4mi, 7km
Updated: Tue, 16-Aug-2022 12:53am PDT
Clear
Clear
 Wind from N
Wind: N 13 mph , 20 km/h
Temperature: 84°F , 29°C
Heat Index: 83°F , 28°C
Dew Point: 57°F , 14°C
Humidity: 40%
Barometer: 29.87 inHg , 1011.5 hPa
Clouds: Clear
Visibility: 10 miles , 16 km
2022/08/16 07:53 KVGT 160753Z AUTO 36011KT 10SM CLR 29/14 A2987 RMK AO2 PK WND 30027/0655 WSHFT 0718 SLP104 T02940139 403610267
KLSV - Las Vegas/Nellis, Nevada, USA
Distance from station: ESE 10mi, 16km
Updated: Mon, 15-Aug-2022 11:58pm PDT
Mostly cloudy
Mostly cloudy
 Wind from S
Wind: S 16 mph , 26 km/h
Temperature: 84°F , 29°C
Heat Index: 84°F , 29°C
Dew Point: 61°F , 16°C
Humidity: 45%
Barometer: 29.87 inHg , 1011.5 hPa
Clouds: Mostly cloudy
Visibility: 10 miles , 16 km
Cloud details: Partly cloudy 14000 ft
Mostly cloudy 17000 ft
2022/08/16 06:58 KLSV 160658Z 17014KT 10SM SCT140 BKN170 29/16 A2987 RMK AO2A SLPNO WND DATA ESTMD $
 
KLAS - Las Vegas, Nevada, USA
Distance from station: S 15mi, 23km
Updated: Tue, 16-Aug-2022 12:56am PDT
Overcast
Overcast
 Wind from SSE
Wind: SSE 5 mph , 7 km/h
Temperature: 82°F , 28°C
Heat Index: 82°F , 28°C
Dew Point: 57°F , 14°C
Humidity: 42%
Barometer: 29.90 inHg , 1012.5 hPa
Clouds: Overcast
Visibility: 10 miles , 16 km
Cloud details: Few Clouds 12000 ft
Overcast 19000 ft
2022/08/16 07:56 KLAS 160756Z 16004KT 10SM FEW120 OVC190 28/14 A2990 RMK AO2 SLP095 VIRGA NW-NE T02830144 403610261
KHND - Vegas/Henderson, Nevada, USA
Distance from station: S 20mi, 33km
Updated: Tue, 16-Aug-2022 12:56am PDT
Clear
Clear
 Wind from SSE
Wind: SSE 8 mph , 13 km/h
Temperature: 82°F , 28°C
Heat Index: 82°F , 28°C
Dew Point: 57°F , 14°C
Humidity: 42%
Barometer: 29.93 inHg , 1013.5 hPa
Clouds: Clear
Visibility: 10 miles , 16 km
2022/08/16 07:56 KHND 160756Z AUTO 16007KT 10SM CLR 28/14 A2993 RMK AO2 SLP121 T02780144
 
KBVU - Boulder City, Nevada, USA
Distance from station: SE 28mi, 46km
Updated: Tue, 16-Aug-2022 12:55am PDT

 Wind from NNW
Wind: NNW 14 mph , 22 km/h
Temperature: 82°F , 28°C
Heat Index: 81°F , 27°C
Dew Point: 55°F , 13°C
Humidity: 40%
Barometer: 29.88 inHg , 1011.9 hPa
2022/08/16 07:55 KBVU 160755Z AUTO 34012KT 28/13 A2988 RMK AO2 PWINO TSNO
KINS - Indian Springs, Nevada, USA
Distance from station: NW 35mi, 56km
Updated: Tue, 16-Aug-2022 12:58am PDT
Overcast
Overcast
 Wind from S
Wind: S 15 mph , 24 km/h
Temperature: 84°F , 29°C
Dew Point: 48°F , 9°C
Humidity: 29%
Barometer: 29.94 inHg , 1013.9 hPa
Clouds: Overcast
Visibility: 10 miles , 16 km
Cloud details: Mostly cloudy 11000 ft
Overcast 14000 ft
2022/08/16 07:58 KINS 160758Z AUTO 19013KT 10SM BKN110 OVC140 29/09 A2994 RMK AO2 RAE07 SLP082 P0000 T02870094 403640251